createdAt,value
2018-09-21T00:01:22.514Z,59.49
2018-09-21T00:02:22.530Z,60.07
2018-09-21T00:04:15.441Z,60.46
2018-09-21T00:05:15.466Z,60.65
2018-09-21T00:07:08.388Z,60.07
2018-09-21T00:08:08.404Z,60.55
2018-09-21T00:10:01.328Z,60.07
2018-09-21T00:11:01.338Z,59.97
2018-09-21T00:12:54.260Z,60.46
2018-09-21T00:13:54.323Z,60.46
2018-09-21T00:15:47.223Z,60.46
2018-09-21T00:16:47.224Z,60.55
2018-09-21T00:18:40.157Z,60.65
2018-09-21T00:19:40.155Z,60.36
2018-09-21T00:21:33.076Z,60.65
2018-09-21T00:22:33.090Z,60.75
2018-09-21T00:24:26.010Z,60.07
2018-09-21T00:25:26.034Z,60.27
2018-09-21T00:27:18.960Z,60.07
2018-09-21T00:28:18.977Z,60.04
2018-09-21T00:30:11.902Z,60.24
2018-09-21T00:31:11.911Z,60.62
2018-09-21T00:33:04.834Z,60.33
2018-09-21T00:34:04.871Z,60.72
2018-09-21T00:35:57.783Z,60.24
2018-09-21T00:36:57.794Z,60.52
2018-09-21T00:38:50.707Z,60.42
2018-09-21T00:39:50.731Z,60.42
2018-09-21T00:41:43.672Z,60.62
2018-09-21T00:42:43.692Z,60.72
2018-09-21T00:44:36.603Z,60.91
2018-09-21T00:45:36.627Z,61.00
2018-09-21T00:47:29.545Z,60.72
2018-09-21T00:48:29.560Z,60.62
2018-09-21T00:50:23.462Z,61.29
2018-09-21T00:51:23.487Z,61.39
2018-09-21T00:53:16.423Z,61.49
2018-09-21T00:54:16.423Z,61.49
2018-09-21T00:56:09.361Z,61.29
2018-09-21T00:57:09.357Z,61.39
2018-09-21T00:59:02.273Z,61.29
2018-09-21T01:00:02.297Z,61.29
2018-09-21T01:01:55.216Z,61.10
2018-09-21T01:02:55.230Z,61.10
2018-09-21T01:04:48.139Z,61.58
2018-09-21T01:05:48.163Z,61.29
2018-09-21T01:07:41.084Z,62.26
2018-09-21T01:08:41.097Z,61.77
2018-09-21T01:10:34.010Z,61.29
2018-09-21T01:11:34.044Z,61.77
2018-09-21T01:13:26.954Z,61.65
2018-09-21T01:14:26.990Z,61.77
2018-09-21T01:16:19.893Z,61.97
2018-09-21T01:17:19.915Z,61.97
2018-09-21T01:19:12.862Z,62.16
2018-09-21T01:20:12.880Z,62.35
2018-09-21T01:22:05.801Z,62.26
2018-09-21T01:23:05.814Z,62.13
2018-09-21T01:24:58.725Z,62.13
2018-09-21T01:25:58.748Z,62.32
2018-09-21T01:27:51.673Z,63.28
2018-09-21T01:28:51.682Z,63.09
2018-09-21T01:30:44.598Z,62.99
2018-09-21T01:31:44.619Z,62.71
2018-09-21T01:33:37.546Z,62.90
2018-09-21T01:34:37.554Z,62.71
2018-09-21T01:36:30.466Z,63.31
2018-09-21T01:37:30.489Z,63.28
2018-09-21T01:39:23.413Z,63.18
2018-09-21T01:40:23.428Z,63.18
2018-09-21T01:42:16.337Z,63.31
2018-09-21T01:43:16.359Z,63.31
2018-09-21T01:45:09.279Z,63.22
2018-09-21T01:46:09.293Z,63.31
2018-09-21T01:48:02.217Z,63.51
2018-09-21T01:49:02.231Z,63.41
2018-09-21T01:50:55.139Z,63.51
2018-09-21T01:51:55.161Z,63.41
2018-09-21T01:53:48.089Z,63.60
2018-09-21T01:54:48.098Z,63.51
2018-09-21T01:56:41.008Z,63.41
2018-09-21T01:57:41.031Z,63.79
2018-09-21T01:59:33.959Z,64.08
2018-09-21T02:00:33.964Z,64.18
2018-09-21T02:02:26.870Z,63.79
2018-09-21T02:03:26.898Z,63.99
2018-09-21T02:05:19.836Z,63.70
2018-09-21T02:06:19.830Z,64.18
2018-09-21T02:08:12.913Z,64.18
2018-09-21T02:09:12.935Z,63.89
2018-09-21T02:11:05.855Z,63.82
2018-09-21T02:12:05.876Z,64.08
2018-09-21T02:13:58.808Z,64.12
2018-09-21T02:14:58.821Z,64.12
2018-09-21T02:16:51.736Z,63.92
2018-09-21T02:17:51.759Z,64.31
2018-09-21T02:19:44.679Z,64.12
2018-09-21T02:20:44.693Z,64.12
2018-09-21T02:22:37.603Z,64.12
2018-09-21T02:23:37.627Z,63.82
2018-09-21T02:25:30.558Z,63.82
2018-09-21T02:26:30.560Z,64.12
2018-09-21T02:28:23.471Z,64.12
2018-09-21T02:29:23.495Z,64.79
2018-09-21T02:31:16.421Z,64.12
2018-09-21T02:32:16.431Z,64.25
2018-09-21T02:34:09.356Z,64.15
2018-09-21T02:35:09.370Z,64.05
2018-09-21T02:37:02.289Z,63.47
2018-09-21T02:38:02.320Z,63.76
2018-09-21T02:39:55.230Z,63.76
2018-09-21T02:40:55.245Z,63.76
2018-09-21T02:42:48.156Z,63.76
2018-09-21T02:43:48.179Z,63.57
2018-09-21T02:45:41.101Z,63.57
2018-09-21T02:46:41.114Z,63.47
2018-09-21T02:48:34.089Z,63.76
2018-09-21T02:49:34.054Z,63.67
2018-09-21T02:51:26.973Z,63.85
2018-09-21T02:52:26.987Z,63.57
2018-09-21T02:54:19.924Z,63.57
2018-09-21T02:55:19.923Z,63.85
2018-09-21T02:57:12.863Z,63.38
2018-09-21T02:58:12.860Z,63.57
2018-09-21T03:00:05.807Z,63.47
2018-09-21T03:01:05.802Z,63.57
2018-09-21T03:02:58.712Z,64.34
2018-09-21T03:03:58.734Z,63.76
2018-09-21T03:05:51.658Z,64.25
2018-09-21T03:06:51.672Z,64.25
2018-09-21T03:08:44.599Z,63.76
2018-09-21T03:09:44.619Z,63.95
2018-09-21T03:11:37.560Z,64.25
2018-09-21T03:12:37.561Z,64.05
2018-09-21T03:14:30.518Z,64.25
2018-09-21T03:15:30.497Z,64.05
2018-09-21T03:17:23.416Z,64.15
2018-09-21T03:18:23.429Z,63.95
2018-09-21T03:20:16.343Z,63.79
2018-09-21T03:21:16.365Z,63.79
2018-09-21T03:23:09.290Z,64.08
2018-09-21T03:24:09.303Z,64.25
2018-09-21T03:26:02.219Z,63.76
2018-09-21T03:27:02.234Z,63.79
2018-09-21T03:28:55.160Z,63.85
2018-09-21T03:29:55.204Z,63.89
2018-09-21T03:31:48.103Z,63.60
2018-09-21T03:32:48.125Z,63.60
2018-09-21T03:34:41.030Z,63.79
2018-09-21T03:35:41.053Z,63.79
2018-09-21T03:37:34.002Z,63.41
2018-09-21T03:38:34.015Z,63.21
2018-09-21T03:40:26.927Z,63.02
2018-09-21T03:41:26.951Z,63.12
2018-09-21T03:43:19.899Z,63.02
2018-09-21T03:44:19.913Z,62.93
2018-09-21T03:46:12.836Z,62.93
2018-09-21T03:47:12.848Z,62.93
2018-09-21T03:49:05.766Z,63.31
2018-09-21T03:50:05.790Z,62.54
2018-09-21T03:51:58.716Z,62.35
2018-09-21T03:52:58.729Z,62.25
2018-09-21T03:54:51.645Z,61.96
2018-09-21T03:55:51.667Z,62.06
2018-09-21T03:57:44.588Z,62.35
2018-09-21T03:58:44.604Z,62.25
2018-09-21T04:00:37.517Z,62.54
2018-09-21T04:01:37.541Z,62.06
2018-09-21T04:03:30.468Z,61.96
2018-09-21T04:04:30.480Z,61.77
2018-09-21T04:06:23.390Z,62.18
2018-09-21T04:07:23.413Z,62.86
2018-09-21T04:09:16.335Z,62.28
2018-09-21T04:10:16.350Z,62.38
2018-09-21T04:12:09.283Z,62.38
2018-09-21T04:13:09.291Z,62.25
2018-09-21T04:15:02.222Z,62.45
2018-09-21T04:16:02.234Z,62.38
2018-09-21T04:17:55.170Z,62.35
2018-09-21T04:18:55.221Z,62.35
2018-09-21T04:20:48.085Z,62.25
2018-09-21T04:21:48.109Z,62.35
2018-09-21T04:23:41.028Z,62.15
2018-09-21T04:24:41.042Z,62.15
2018-09-21T04:26:33.956Z,62.18
2018-09-21T04:27:33.988Z,62.15
2018-09-21T04:29:26.900Z,62.25
2018-09-21T04:30:26.917Z,62.15
2018-09-21T04:32:19.833Z,62.18
2018-09-21T04:33:19.875Z,62.38
2018-09-21T04:35:12.779Z,62.38
2018-09-21T04:36:12.864Z,62.18
2018-09-21T04:38:05.723Z,61.99
2018-09-21T04:39:05.730Z,62.28
2018-09-21T04:40:58.658Z,62.18
2018-09-21T04:41:58.683Z,62.48
2018-09-21T04:43:51.602Z,62.09
2018-09-21T04:44:51.624Z,62.18
2018-09-21T04:46:44.529Z,61.32
2018-09-21T04:47:44.555Z,61.13
2018-09-21T04:49:37.476Z,61.51
2018-09-21T04:50:37.489Z,61.51
2018-09-21T04:52:30.525Z,61.22
2018-09-21T04:53:30.427Z,60.93
2018-09-21T04:55:23.354Z,60.55
2018-09-21T04:56:23.366Z,60.45
2018-09-21T04:58:16.279Z,60.26
2018-09-21T04:59:16.302Z,60.74
2018-09-21T05:01:09.222Z,60.19
2018-09-21T05:02:09.240Z,60.58
2018-09-21T05:04:02.162Z,60.19
2018-09-21T05:05:02.183Z,60.58
2018-09-21T05:06:55.093Z,59.71
2018-09-21T05:07:55.118Z,59.80
2018-09-21T05:09:48.041Z,60.10
2018-09-21T05:10:48.055Z,60.28
2018-09-21T05:12:40.991Z,59.61
2018-09-21T05:13:41.007Z,59.90
2018-09-21T05:15:33.920Z,59.52
2018-09-21T05:16:33.936Z,59.93
2018-09-21T05:18:26.871Z,59.16
2018-09-21T05:19:26.874Z,59.55
2018-09-21T05:21:19.811Z,59.45
2018-09-21T05:22:19.811Z,58.58
2018-09-21T05:24:12.731Z,59.35
2018-09-21T05:25:12.751Z,58.87
2018-09-21T05:27:05.674Z,58.87
2018-09-21T05:28:05.687Z,58.48
2018-09-21T05:29:58.616Z,58.77
2018-09-21T05:30:58.634Z,58.29
2018-09-21T05:32:51.549Z,58.32
2018-09-21T05:33:51.595Z,58.80
2018-09-21T05:35:44.496Z,58.32
2018-09-21T05:36:44.504Z,58.70
2018-09-21T05:38:37.423Z,58.42
2018-09-21T05:39:37.447Z,58.51
2018-09-21T05:41:30.369Z,58.61
2018-09-21T05:42:30.388Z,58.70
2018-09-21T05:44:24.295Z,58.32
2018-09-21T05:45:24.320Z,58.51
2018-09-21T05:47:17.245Z,58.32
2018-09-21T05:48:17.264Z,58.32
2018-09-21T05:50:10.176Z,58.61
2018-09-21T05:51:10.197Z,58.42
2018-09-21T05:53:03.130Z,57.96
2018-09-21T05:54:03.136Z,58.35
2018-09-21T05:55:56.057Z,58.25
2018-09-21T05:56:56.083Z,57.67
2018-09-21T05:58:49.000Z,57.96
2018-09-21T05:59:49.016Z,57.48
2018-09-21T06:01:41.940Z,57.87
2018-09-21T06:02:41.999Z,57.89
2018-09-21T06:04:34.878Z,57.31
2018-09-21T06:05:34.907Z,57.12
2018-09-21T06:07:27.827Z,57.12
2018-09-21T06:08:27.844Z,57.41
2018-09-21T06:10:20.760Z,57.67
2018-09-21T06:11:20.803Z,57.70
2018-09-21T06:13:13.707Z,57.87
2018-09-21T06:14:13.741Z,58.18
2018-09-21T06:16:06.640Z,57.60
2018-09-21T06:17:06.666Z,57.03
2018-09-21T06:18:59.605Z,57.29
2018-09-21T06:20:11.758Z,57.21
2018-09-21T06:21:52.547Z,57.41
2018-09-21T06:22:52.573Z,56.93
2018-09-21T06:24:45.483Z,56.63
2018-09-21T06:25:45.513Z,56.54
2018-09-21T06:27:38.430Z,56.54
2018-09-21T06:28:38.446Z,56.15
2018-09-21T06:30:31.362Z,56.35
2018-09-21T06:31:31.387Z,56.45
2018-09-21T06:33:24.318Z,56.63
2018-09-21T06:34:24.332Z,56.73
2018-09-21T06:36:17.249Z,56.73
2018-09-21T06:37:17.276Z,56.83
2018-09-21T06:39:10.199Z,56.83
2018-09-21T06:40:10.217Z,56.83
2018-09-21T06:42:03.137Z,56.73
2018-09-21T06:43:03.158Z,56.54
2018-09-21T06:44:56.080Z,56.57
2018-09-21T06:45:56.095Z,56.45
2018-09-21T06:47:49.017Z,56.57
2018-09-21T06:48:49.041Z,56.09
2018-09-21T06:50:41.970Z,56.57
2018-09-21T06:51:41.984Z,56.09
2018-09-21T06:53:34.908Z,56.30
2018-09-21T06:54:34.928Z,56.37
2018-09-21T06:56:27.848Z,55.73
2018-09-21T06:57:27.878Z,55.73
2018-09-21T06:59:20.801Z,55.15
2018-09-21T07:00:20.817Z,55.24
2018-09-21T07:02:13.732Z,55.15
2018-09-21T07:03:13.760Z,54.66
2018-09-21T07:05:06.696Z,54.37
2018-09-21T07:06:06.701Z,54.08
2018-09-21T07:07:59.618Z,54.27
2018-09-21T07:08:59.643Z,54.17
2018-09-21T07:10:52.571Z,53.69
2018-09-21T07:11:52.595Z,53.99
2018-09-21T07:13:45.512Z,53.21
2018-09-21T07:14:45.528Z,53.21
2018-09-21T07:16:38.467Z,53.59
2018-09-21T07:17:38.496Z,52.82
2018-09-21T07:19:31.421Z,53.21
2018-09-21T07:20:31.437Z,52.73
2018-09-21T07:22:24.355Z,52.46
2018-09-21T07:23:24.383Z,52.27
2018-09-21T07:25:17.315Z,52.08
2018-09-21T07:26:17.333Z,52.17
2018-09-21T07:28:10.248Z,51.40
2018-09-21T07:29:10.275Z,51.50
2018-09-21T07:31:03.210Z,51.50
2018-09-21T07:32:03.228Z,51.30
2018-09-21T07:33:56.147Z,50.62
2018-09-21T07:34:56.170Z,51.30
2018-09-21T07:36:49.100Z,51.50
2018-09-21T07:37:49.121Z,51.40
2018-09-21T07:39:42.054Z,51.50
2018-09-21T07:40:42.072Z,51.98
2018-09-21T07:42:34.992Z,51.88
2018-09-21T07:43:35.019Z,51.98
2018-09-21T07:45:27.947Z,51.98
2018-09-21T07:46:27.970Z,51.88
2018-09-21T07:48:20.915Z,52.36
2018-09-21T07:49:20.910Z,52.08
2018-09-21T07:51:13.835Z,52.66
2018-09-21T07:52:13.854Z,51.98
2018-09-21T07:54:06.804Z,52.17
2018-09-21T07:55:06.798Z,51.50
2018-09-21T07:56:59.725Z,51.01
2018-09-21T07:57:59.742Z,51.40
2018-09-21T07:59:52.659Z,51.40
2018-09-21T08:00:52.679Z,51.98
2018-09-21T08:02:45.614Z,51.95
2018-09-21T08:03:45.639Z,51.40
2018-09-21T08:05:38.560Z,51.78
2018-09-21T08:06:38.572Z,51.30
2018-09-21T08:08:31.493Z,51.40
2018-09-21T08:09:31.525Z,51.98
2018-09-21T08:11:24.458Z,51.88
2018-09-21T08:12:24.472Z,51.50
2018-09-21T08:14:17.398Z,51.30
2018-09-21T08:15:17.421Z,51.30
2018-09-21T08:17:10.358Z,51.50
2018-09-21T08:18:10.377Z,51.10
2018-09-21T08:20:03.299Z,51.20
2018-09-21T08:21:03.323Z,51.30
2018-09-21T08:22:56.253Z,51.40
2018-09-21T08:23:56.270Z,51.10
2018-09-21T08:25:49.188Z,51.18
2018-09-21T08:26:49.218Z,50.98
2018-09-21T08:28:42.143Z,51.95
2018-09-21T08:29:42.161Z,52.24
2018-09-21T08:31:35.169Z,52.27
2018-09-21T08:32:35.102Z,52.34
2018-09-21T08:34:28.021Z,52.46
2018-09-21T08:35:28.047Z,52.14
2018-09-21T08:37:21.106Z,52.34
2018-09-21T08:38:20.992Z,51.95
2018-09-21T08:40:13.928Z,52.53
2018-09-21T08:41:13.939Z,52.05
2018-09-21T08:43:06.872Z,52.14
2018-09-21T08:44:06.882Z,51.95
2018-09-21T08:45:59.806Z,52.14
2018-09-21T08:46:59.828Z,52.05
2018-09-21T08:48:52.755Z,52.24
2018-09-21T08:49:52.771Z,52.34
2018-09-21T08:51:45.696Z,52.34
2018-09-21T08:52:45.716Z,52.14
2018-09-21T08:54:38.642Z,51.56
2018-09-21T08:55:38.668Z,51.56
2018-09-21T08:57:31.590Z,51.18
2018-09-21T08:58:31.603Z,51.56
2018-09-21T09:00:24.543Z,51.37
2018-09-21T09:01:24.567Z,51.18
2018-09-21T09:03:17.520Z,51.18
2018-09-21T09:04:17.514Z,51.47
2018-09-21T09:06:10.432Z,51.28
2018-09-21T09:07:10.457Z,51.15
2018-09-21T09:09:03.381Z,53.02
2018-09-21T09:10:03.404Z,53.41
2018-09-21T09:11:56.318Z,53.41
2018-09-21T09:12:56.341Z,53.41
2018-09-21T09:14:49.268Z,53.02
2018-09-21T09:15:49.284Z,53.02
2018-09-21T09:17:42.203Z,53.11
2018-09-21T09:18:42.234Z,52.73
2018-09-21T09:20:35.161Z,53.47
2018-09-21T09:21:35.180Z,55.21
2018-09-21T09:23:28.108Z,57.15
2018-09-21T09:24:28.166Z,58.47
2018-09-21T09:26:21.062Z,59.73
2018-09-21T09:27:21.072Z,59.80
2018-09-21T09:29:13.994Z,60.18
2018-09-21T09:30:14.009Z,60.28
2018-09-21T09:32:06.919Z,61.60
2018-09-21T09:33:06.954Z,63.43
2018-09-21T09:34:59.896Z,63.82
2018-09-21T09:35:59.894Z,64.28
2018-09-21T09:37:52.810Z,65.34
2018-09-21T09:38:52.833Z,66.78
2018-09-21T09:40:45.760Z,67.04
2018-09-21T09:41:45.776Z,68.19
2018-09-21T09:43:38.691Z,70.48
2018-09-21T09:44:38.716Z,72.31
2018-09-21T09:46:31.643Z,74.49
2018-09-21T09:47:31.665Z,75.61
2018-09-21T09:49:24.575Z,77.92
2018-09-21T09:50:24.609Z,78.17
2018-09-21T09:52:17.526Z,79.67
2018-09-21T09:53:17.544Z,78.48
2018-09-21T09:55:10.482Z,79.42
2018-09-21T09:56:10.493Z,81.72
2018-09-21T09:58:03.409Z,84.52
2018-09-21T09:59:03.433Z,85.67
2018-09-21T10:00:56.351Z,86.30
2018-09-21T10:01:56.363Z,85.05
2018-09-21T10:03:49.295Z,82.37
2018-09-21T10:04:49.302Z,83.48
2018-09-21T10:06:42.221Z,81.66
2018-09-21T10:07:42.234Z,81.98
2018-09-21T10:09:35.146Z,83.38
2018-09-21T10:10:35.169Z,83.19
2018-09-21T10:12:28.089Z,82.65
2018-09-21T10:13:28.102Z,82.42
2018-09-21T10:15:21.013Z,84.00
2018-09-21T10:16:21.036Z,85.01
2018-09-21T10:18:13.958Z,84.25
2018-09-21T10:19:13.980Z,84.63
2018-09-21T10:21:06.887Z,85.01
2018-09-21T10:22:06.899Z,85.39
2018-09-21T10:24:00.034Z,85.88
2018-09-21T10:25:00.055Z,86.01
2018-09-21T10:26:52.984Z,85.63
2018-09-21T10:27:53.105Z,86.49
2018-09-21T10:29:45.899Z,86.68
2018-09-21T10:30:45.918Z,86.68
2018-09-21T10:32:38.839Z,85.96
2018-09-21T10:33:38.992Z,85.67
2018-09-21T10:35:31.986Z,85.86
2018-09-21T10:36:31.802Z,85.28
2018-09-21T10:38:24.712Z,85.86
2018-09-21T10:39:24.733Z,84.33
2018-09-21T10:41:17.656Z,83.85
2018-09-21T10:42:17.687Z,83.94
2018-09-21T10:44:10.589Z,83.75
2018-09-21T10:45:10.602Z,84.04
2018-09-21T10:47:03.523Z,83.85
2018-09-21T10:48:03.538Z,84.33
2018-09-21T10:49:56.459Z,83.56
2018-09-21T10:50:56.479Z,83.37
2018-09-21T10:52:49.422Z,82.79
2018-09-21T10:53:49.412Z,82.60
2018-09-21T10:55:42.323Z,82.51
2018-09-21T10:56:42.345Z,81.35
2018-09-21T10:58:35.292Z,82.70
2018-09-21T10:59:35.280Z,82.21
2018-09-21T11:01:28.190Z,82.41
2018-09-21T11:02:28.213Z,81.84
2018-09-21T11:04:21.136Z,83.65
2018-09-21T11:05:21.147Z,83.18
2018-09-21T11:07:14.080Z,82.51
2018-09-21T11:08:14.079Z,81.12
2018-09-21T11:10:06.998Z,82.03
2018-09-21T11:11:07.012Z,82.21
2018-09-21T11:12:59.937Z,82.51
2018-09-21T11:13:59.943Z,83.18
2018-09-21T11:15:52.863Z,81.54
2018-09-21T11:16:52.877Z,80.87
2018-09-21T11:18:45.801Z,80.63
2018-09-21T11:19:45.813Z,79.05
2018-09-21T11:21:38.724Z,80.68
2018-09-21T11:22:38.746Z,80.20
2018-09-21T11:24:31.665Z,80.01
2018-09-21T11:25:31.678Z,80.87
2018-09-21T11:27:24.621Z,81.64
2018-09-21T11:28:24.613Z,80.58
2018-09-21T11:30:17.537Z,81.45
2018-09-21T11:31:17.547Z,81.01
2018-09-21T11:33:10.510Z,80.82
2018-09-21T11:34:10.484Z,81.10
2018-09-21T11:36:03.398Z,79.57
2018-09-21T11:37:03.420Z,80.73
2018-09-21T11:38:56.346Z,80.53
2018-09-21T11:39:56.353Z,80.09
2018-09-21T11:41:49.269Z,79.13
2018-09-21T11:42:49.291Z,79.03
2018-09-21T11:44:42.217Z,77.69
2018-09-21T11:45:42.230Z,78.65
2018-09-21T11:47:35.231Z,79.13
2018-09-21T11:48:35.163Z,78.45
2018-09-21T11:50:28.084Z,77.73
2018-09-21T11:51:28.101Z,77.50
2018-09-21T11:53:21.013Z,77.31
2018-09-21T11:54:21.034Z,77.63
2018-09-21T11:56:13.956Z,76.92
2018-09-21T11:57:13.971Z,76.73
2018-09-21T11:59:06.895Z,76.34
2018-09-21T12:00:06.910Z,76.64
2018-09-21T12:01:59.820Z,77.15
2018-09-21T12:02:59.844Z,77.15
2018-09-21T12:04:52.769Z,77.01
2018-09-21T12:05:52.780Z,77.15
2018-09-21T12:07:45.690Z,76.57
2018-09-21T12:08:45.715Z,77.69
2018-09-21T12:10:38.696Z,77.34
2018-09-21T12:11:38.651Z,77.73
2018-09-21T12:13:31.561Z,77.34
2018-09-21T12:14:31.585Z,76.57
2018-09-21T12:16:24.507Z,76.15
2018-09-21T12:17:24.526Z,76.54
2018-09-21T12:19:17.436Z,76.73
2018-09-21T12:20:17.455Z,77.40
2018-09-21T12:22:10.396Z,77.01
2018-09-21T12:23:10.390Z,76.54
2018-09-21T12:25:03.309Z,76.82
2018-09-21T12:26:03.347Z,76.34
2018-09-21T12:27:56.241Z,76.06
2018-09-21T12:28:56.258Z,76.54
2018-09-21T12:30:49.195Z,76.96
2018-09-21T12:31:49.207Z,76.19
2018-09-21T12:33:42.121Z,76.14
2018-09-21T12:34:42.145Z,74.60
2018-09-21T12:36:35.066Z,75.37
2018-09-21T12:37:35.082Z,75.07
2018-09-21T12:39:28.001Z,73.92
2018-09-21T12:40:28.023Z,73.54
2018-09-21T12:42:20.996Z,73.54
2018-09-21T12:43:21.007Z,73.15
2018-09-21T12:45:13.922Z,73.35
2018-09-21T12:46:13.945Z,73.83
2018-09-21T12:48:06.866Z,74.02
2018-09-21T12:49:06.879Z,74.40
2018-09-21T12:50:59.827Z,73.88
2018-09-21T12:51:59.833Z,73.50
2018-09-21T12:53:52.734Z,74.94
2018-09-21T12:54:52.751Z,75.52
2018-09-21T12:56:45.685Z,75.81
2018-09-21T12:57:45.702Z,76.34
2018-09-21T12:59:38.606Z,76.77
2018-09-21T13:00:38.628Z,76.34
2018-09-21T13:02:31.605Z,75.87
2018-09-21T13:03:31.567Z,75.87
2018-09-21T13:05:24.477Z,75.10
2018-09-21T13:06:24.577Z,74.52
2018-09-21T13:08:17.421Z,74.52
2018-09-21T13:09:17.436Z,74.52
2018-09-21T13:11:10.347Z,73.85
2018-09-21T13:12:10.382Z,73.41
2018-09-21T13:14:03.289Z,72.22
2018-09-21T13:15:03.307Z,72.31
2018-09-21T13:16:56.273Z,72.22
2018-09-21T13:17:56.273Z,72.12
2018-09-21T13:19:49.168Z,68.51
2018-09-21T13:20:49.191Z,67.41
2018-09-21T13:22:42.112Z,60.21
2018-09-21T13:23:42.126Z,58.87
2018-09-21T13:25:35.066Z,58.77
2018-09-21T13:26:35.083Z,58.00
2018-09-21T13:28:28.010Z,55.89
2018-09-21T13:29:28.006Z,55.38
2018-09-21T13:31:20.919Z,55.32
2018-09-21T13:32:21.044Z,54.61
2018-09-21T13:34:13.861Z,54.74
2018-09-21T13:35:13.904Z,53.85
2018-09-21T13:37:07.282Z,52.89
2018-09-21T13:38:07.307Z,53.17
2018-09-21T13:40:00.276Z,53.49
2018-09-21T13:41:00.243Z,52.89
2018-09-21T13:42:53.177Z,53.27
2018-09-21T13:43:53.180Z,53.17
2018-09-21T13:45:47.088Z,54.80
2018-09-21T13:46:47.111Z,54.71
2018-09-21T13:48:40.068Z,54.23
2018-09-21T13:49:40.060Z,53.56
2018-09-21T13:51:32.957Z,53.94
2018-09-21T13:52:32.976Z,54.52
2018-09-21T13:54:25.902Z,53.46
2018-09-21T13:55:25.916Z,53.56
2018-09-21T13:57:18.830Z,53.17
2018-09-21T13:58:18.844Z,53.46
2018-09-21T14:00:11.793Z,52.50
2018-09-21T14:01:11.804Z,52.89
2018-09-21T14:03:04.715Z,52.98
2018-09-21T14:04:04.740Z,53.75
2018-09-21T14:05:57.661Z,53.08
2018-09-21T14:06:57.674Z,52.60
2018-09-21T14:08:50.593Z,54.13
2018-09-21T14:09:50.607Z,53.66
2018-09-21T14:11:43.516Z,52.69
2018-09-21T14:12:43.540Z,52.98
2018-09-21T14:14:36.459Z,53.27
2018-09-21T14:15:36.519Z,51.93
2018-09-21T14:17:29.388Z,52.40
2018-09-21T14:18:29.412Z,53.17
2018-09-21T14:20:22.525Z,54.16
2018-09-21T14:21:22.613Z,53.30
2018-09-21T14:23:15.458Z,53.97
2018-09-21T14:24:15.473Z,50.90
2018-09-21T14:26:08.416Z,50.99
2018-09-21T14:27:08.427Z,51.18
2018-09-21T14:29:01.352Z,51.18
2018-09-21T14:30:01.381Z,51.47
2018-09-21T14:31:54.277Z,52.31
2018-09-21T14:32:54.293Z,52.24
2018-09-21T14:34:47.216Z,52.14
2018-09-21T14:35:47.237Z,52.62
2018-09-21T14:37:40.139Z,52.05
2018-09-21T14:38:40.162Z,52.02
2018-09-21T14:40:33.081Z,52.91
2018-09-21T14:41:33.097Z,52.53
2018-09-21T14:43:26.008Z,52.43
2018-09-21T14:44:26.032Z,52.43
2018-09-21T14:46:18.948Z,52.94
2018-09-21T14:47:18.964Z,52.84
2018-09-21T14:49:11.880Z,52.75
2018-09-21T14:50:11.900Z,51.31
2018-09-21T14:52:04.828Z,50.82
2018-09-21T14:53:04.832Z,50.70
2018-09-21T14:54:57.766Z,51.21
2018-09-21T14:55:57.765Z,51.02
2018-09-21T14:57:50.722Z,52.17
2018-09-21T14:58:50.701Z,50.73
2018-09-21T15:00:43.618Z,50.05
2018-09-21T15:01:43.634Z,49.96
2018-09-21T15:03:36.556Z,49.77
2018-09-21T15:04:36.582Z,48.49
2018-09-21T15:06:29.504Z,46.67
2018-09-21T15:07:29.514Z,46.28
2018-09-21T15:09:22.430Z,47.15
2018-09-21T15:10:22.453Z,47.44
2018-09-21T15:12:15.373Z,47.71
2018-09-21T15:13:15.377Z,47.22
2018-09-21T15:15:08.295Z,48.09
2018-09-21T15:16:08.316Z,48.30
2018-09-21T15:18:01.237Z,47.25
2018-09-21T15:19:01.248Z,47.63
2018-09-21T15:20:54.162Z,48.21
2018-09-21T15:21:54.183Z,48.57
2018-09-21T15:23:54.724Z,47.15
2018-09-21T15:24:47.608Z,47.13
2018-09-21T15:26:47.647Z,47.41
2018-09-21T15:27:40.538Z,47.41
2018-09-21T15:29:33.448Z,48.28
2018-09-21T15:30:33.467Z,47.51
2018-09-21T15:32:26.387Z,48.79
2018-09-21T15:33:26.425Z,48.21
2018-09-21T15:35:19.308Z,46.55
2018-09-21T15:36:19.331Z,45.88
2018-09-21T15:38:12.303Z,45.11
2018-09-21T15:39:12.309Z,45.01
2018-09-21T15:41:05.168Z,45.11
2018-09-21T15:42:05.195Z,45.50
2018-09-21T15:43:58.113Z,44.70
2018-09-21T15:44:58.137Z,45.50
2018-09-21T15:46:51.032Z,43.07
2018-09-21T15:47:51.056Z,42.88
2018-09-21T15:49:43.973Z,42.98
2018-09-21T15:50:44.521Z,43.46
2018-09-21T15:52:36.966Z,42.40
2018-09-21T15:53:36.918Z,42.88
2018-09-21T15:55:29.867Z,42.30
2018-09-21T15:56:29.863Z,41.93
2018-09-21T15:58:22.780Z,41.73
2018-09-21T15:59:22.795Z,41.16
2018-09-21T16:01:15.702Z,41.73
2018-09-21T16:02:15.723Z,41.83
2018-09-21T16:04:08.641Z,42.23
2018-09-21T16:05:08.652Z,42.11
2018-09-21T16:07:02.610Z,42.81
2018-09-21T16:08:02.580Z,42.61
2018-09-21T16:09:55.500Z,42.21
2018-09-21T16:10:55.509Z,42.52
2018-09-21T16:12:48.418Z,42.98
2018-09-21T16:13:48.440Z,42.13
2018-09-21T16:15:41.364Z,42.40
2018-09-21T16:16:41.373Z,42.21
2018-09-21T16:18:34.299Z,42.40
2018-09-21T16:19:34.307Z,42.69
2018-09-21T16:21:27.219Z,43.17
2018-09-21T16:22:27.241Z,42.79
2018-09-21T16:24:20.198Z,42.88
2018-09-21T16:25:20.170Z,42.69
2018-09-21T16:27:13.077Z,42.40
2018-09-21T16:28:13.132Z,42.30
2018-09-21T16:30:06.018Z,42.50
2018-09-21T16:31:06.028Z,42.50
2018-09-21T16:32:59.001Z,42.11
2018-09-21T16:33:58.958Z,42.29
2018-09-21T16:35:51.932Z,42.77
2018-09-21T16:36:51.942Z,43.27
2018-09-21T16:38:44.856Z,42.86
2018-09-21T16:39:44.908Z,43.53
2018-09-21T16:41:37.835Z,43.73
2018-09-21T16:42:37.800Z,44.11
2018-09-21T16:44:30.777Z,44.40
2018-09-21T16:45:30.764Z,44.49
2018-09-21T16:47:23.646Z,44.49
2018-09-21T16:48:23.708Z,44.78
2018-09-21T16:50:16.586Z,44.97
2018-09-21T16:51:16.617Z,45.23
2018-09-21T16:53:09.504Z,44.97
2018-09-21T16:54:09.575Z,45.45
2018-09-21T16:56:03.109Z,45.64
2018-09-21T16:57:02.504Z,45.74
2018-09-21T16:58:55.455Z,45.74
2018-09-21T16:59:55.441Z,46.00
2018-09-21T17:01:48.425Z,46.58
2018-09-21T17:02:48.358Z,46.19
2018-09-21T17:04:41.856Z,46.39
2018-09-21T17:05:41.294Z,47.06
2018-09-21T17:07:34.243Z,48.02
2018-09-21T17:08:34.220Z,47.63
2018-09-21T17:10:27.172Z,47.92
2018-09-21T17:11:27.261Z,47.92
2018-09-21T17:13:20.067Z,48.78
2018-09-21T17:14:20.058Z,49.16
2018-09-21T17:16:13.006Z,49.26
2018-09-21T17:17:12.999Z,49.07
2018-09-21T17:19:05.936Z,49.24
2018-09-21T17:20:05.967Z,49.05
2018-09-21T17:21:58.828Z,49.71
2018-09-21T17:22:58.838Z,49.33
2018-09-21T17:24:51.772Z,49.62
2018-09-21T17:25:51.794Z,49.71
2018-09-21T17:27:44.714Z,49.91
2018-09-21T17:28:44.740Z,50.29
2018-09-21T17:30:37.645Z,50.20
2018-09-21T17:31:37.667Z,50.29
2018-09-21T17:33:30.576Z,50.77
2018-09-21T17:34:30.588Z,50.48
2018-09-21T17:36:23.504Z,50.46
2018-09-21T17:37:23.512Z,49.79
2018-09-21T17:39:16.422Z,49.62
2018-09-21T17:40:16.440Z,49.02
2018-09-21T17:42:09.359Z,49.21
2018-09-21T17:43:09.371Z,49.31
2018-09-21T17:45:02.281Z,49.31
2018-09-21T17:46:02.299Z,49.21
2018-09-21T17:47:55.427Z,48.93
2018-09-21T17:48:55.439Z,49.31
2018-09-21T17:50:48.352Z,48.93
2018-09-21T17:51:48.367Z,48.93
2018-09-21T17:53:41.278Z,48.64
2018-09-21T17:54:41.290Z,47.87
2018-09-21T17:56:34.195Z,48.07
2018-09-21T17:57:34.220Z,48.35
2018-09-21T17:59:28.132Z,48.35
2018-09-21T18:00:28.143Z,48.25
2018-09-21T18:02:21.054Z,48.44
2018-09-21T18:03:21.065Z,48.35
2018-09-21T18:05:13.973Z,47.87
2018-09-21T18:06:13.993Z,48.54
2018-09-21T18:08:06.907Z,48.25
2018-09-21T18:09:06.922Z,48.44
2018-09-21T18:10:59.861Z,48.35
2018-09-21T18:11:59.872Z,48.07
2018-09-21T18:13:52.778Z,48.13
2018-09-21T18:14:52.787Z,47.97
2018-09-21T18:16:45.691Z,48.07
2018-09-21T18:17:45.717Z,47.97
2018-09-21T18:19:38.642Z,48.16
2018-09-21T18:20:38.641Z,48.35
2018-09-21T18:22:31.545Z,48.64
2018-09-21T18:23:31.567Z,48.64
2018-09-21T18:25:24.516Z,48.73
2018-09-21T18:26:24.496Z,48.83
2018-09-21T18:28:17.418Z,48.93
2018-09-21T18:29:17.455Z,48.73
2018-09-21T18:31:10.324Z,48.83
2018-09-21T18:32:10.883Z,48.44
2018-09-21T18:34:03.262Z,48.93